Time;durP1;ratioP1;P1;durP2;ratioP2;P2;SDS_P1;SDS_P2;PMS_P1;PMS_P2;Temp;Humidity;BMP_temperature;BMP_pressure;BME280_temperature;BME280_humidity;BME280_pressure;Samples;Min_cycle;Max_cycle;Signal;HPM_P1;HPM_P2
2022/05/29 00:01:38;;;;;;;0.57;0.00;;;25.80;38.20;;;;;;4970246;28;20146;-51
2022/05/29 00:04:06;;;;;;;1.75;0.10;;;25.70;38.10;;;;;;4970386;28;20061;-51
2022/05/29 00:06:38;;;;;;;0.10;0.10;;;25.80;38.20;;;;;;4970250;28;20135;-51
2022/05/29 00:09:05;;;;;;;0.30;0.30;;;25.70;38.10;;;;;;4970424;28;20038;-54
2022/05/29 00:11:33;;;;;;;0.10;0.00;;;25.70;38.10;;;;;;4970001;28;20599;-53
2022/05/29 00:14:00;;;;;;;0.43;0.13;;;25.70;38.20;;;;;;4971445;28;20116;-50
2022/05/29 00:16:29;;;;;;;0.20;0.03;;;25.70;38.20;;;;;;4970413;28;20046;-52
2022/05/29 00:18:56;;;;;;;0.00;0.00;;;25.70;38.20;;;;;;4970078;28;20146;-53
2022/05/29 00:21:24;;;;;;;0.47;0.25;;;25.70;38.20;;;;;;4970094;28;20054;-50
2022/05/29 00:23:51;;;;;;;0.10;0.10;;;25.70;38.20;;;;;;4970114;28;20411;-53
2022/05/29 00:26:19;;;;;;;0.00;0.00;;;25.70;38.20;;;;;;4970308;28;20054;-49
2022/05/29 00:28:47;;;;;;;0.38;0.00;;;25.70;38.20;;;;;;4970455;28;20046;-51
2022/05/29 00:31:14;;;;;;;0.00;0.00;;;25.70;38.80;;;;;;4969567;28;20474;-52
2022/05/29 00:33:43;;;;;;;1.30;0.00;;;25.60;38.20;;;;;;4969700;28;20102;-52
2022/05/29 00:36:12;;;;;;;0.00;0.00;;;25.60;38.10;;;;;;4952246;28;20051;-50
2022/05/29 00:38:41;;;;;;;0.65;0.00;;;25.60;38.20;;;;;;4969227;28;20511;-49
2022/05/29 00:41:17;;;;;;;0.45;0.20;;;25.60;38.20;;;;;;4971373;28;20068;-50
2022/05/29 00:43:44;;;;;;;0.17;0.00;;;25.60;38.20;;;;;;4969838;28;20047;-52
2022/05/29 00:46:12;;;;;;;0.08;0.00;;;25.60;38.20;;;;;;4969887;28;20529;-52
2022/05/29 00:48:39;;;;;;;0.32;0.00;;;25.60;38.20;;;;;;4969083;28;20066;-49
2022/05/29 00:51:12;;;;;;;0.10;0.10;;;25.60;38.20;;;;;;4969363;28;20047;-56
2022/05/29 00:53:40;;;;;;;0.20;0.00;;;25.60;38.20;;;;;;4969164;28;20053;-51
2022/05/29 00:56:09;;;;;;;0.40;0.00;;;25.60;38.20;;;;;;4970713;28;20062;-51
2022/05/29 00:58:37;;;;;;;2.28;0.00;;;25.50;38.20;;;;;;4969097;28;20047;-52
2022/05/29 01:01:04;;;;;;;0.30;0.00;;;25.50;38.20;;;;;;4969191;28;20049;-49
2022/05/29 01:03:32;;;;;;;0.82;0.00;;;25.50;38.20;;;;;;4970484;28;20070;-53
2022/05/29 01:05:59;;;;;;;0.28;0.00;;;25.50;38.20;;;;;;4969019;28;20053;-52
2022/05/29 01:08:32;;;;;;;0.30;0.00;;;25.50;38.30;;;;;;4969167;28;20548;-49
2022/05/29 01:11:17;;;;;;;0.43;0.10;;;25.50;38.20;;;;;;4968973;28;20047;-52
2022/05/29 01:14:01;;;;;;;0.00;0.00;;;25.50;38.20;;;;;;4969920;28;20042;-48
2022/05/29 01:16:38;;;;;;;0.10;0.00;;;25.50;38.30;;;;;;4967508;28;20043;-50
2022/05/29 01:19:32;;;;;;;0.10;0.10;;;25.50;38.20;;;;;;4968846;28;20170;-50
2022/05/29 01:22:17;;;;;;;0.63;0.00;;;25.50;38.20;;;;;;4963130;28;20410;-51
2022/05/29 01:25:12;;;;;;;0.03;0.00;;;25.50;38.30;;;;;;4969076;28;20136;-53
2022/05/29 01:27:55;;;;;;;0.30;0.00;;;25.50;38.30;;;;;;4968758;28;20050;-56
2022/05/29 01:30:26;;;;;;;0.30;0.00;;;25.40;38.30;;;;;;4963997;28;20053;-53
2022/05/29 01:33:02;;;;;;;0.00;0.00;;;25.40;38.30;;;;;;4951495;28;20129;-53
2022/05/29 01:35:34;;;;;;;0.28;0.00;;;25.40;38.30;;;;;;4969039;28;20080;-54
2022/05/29 01:38:08;;;;;;;0.00;0.00;;;25.30;38.20;;;;;;4968752;28;20047;-52
2022/05/29 01:40:38;;;;;;;0.05;0.00;;;25.30;38.90;;;;;;4968658;28;20045;-51
2022/05/29 01:43:16;;;;;;;0.20;0.00;;;25.30;38.30;;;;;;4967884;28;20162;-51
2022/05/29 01:45:56;;;;;;;0.35;0.00;;;25.30;38.20;;;;;;4968599;28;20050;-50
2022/05/29 01:48:42;;;;;;;0.00;0.00;;;25.30;38.30;;;;;;4963131;28;20038;-51
2022/05/29 01:51:19;;;;;;;0.00;0.00;;;25.30;38.30;;;;;;4968231;28;20496;-52
2022/05/29 01:53:50;;;;;;;1.55;0.00;;;25.30;38.30;;;;;;4967350;28;20039;-53
2022/05/29 01:56:22;;;;;;;0.15;0.00;;;25.30;38.30;;;;;;4969199;28;20070;-54
2022/05/29 01:58:55;;;;;;;0.10;0.00;;;25.30;38.30;;;;;;4969101;28;20510;-53
2022/05/29 02:01:31;;;;;;;0.20;0.00;;;25.30;38.30;;;;;;4966686;28;20045;-48
2022/05/29 02:04:02;;;;;;;0.00;0.00;;;25.30;38.30;;;;;;4963073;28;20522;-50
2022/05/29 02:07:47;;;;;;;0.47;0.08;;;25.30;38.30;;;;;;4967767;28;20035;-49
2022/05/29 02:09:24;;;;;;;0.00;0.00;;;25.30;38.40;;;;;;4967952;28;20159;-49
2022/05/29 02:11:56;;;;;;;0.20;0.10;;;25.30;38.40;;;;;;4968100;28;20038;-51
2022/05/29 02:14:28;;;;;;;0.00;0.00;;;25.30;38.40;;;;;;4968071;28;20081;-51
2022/05/29 02:17:03;;;;;;;0.00;0.00;;;25.20;38.30;;;;;;4969262;28;20519;-50
2022/05/29 02:19:34;;;;;;;0.17;0.17;;;25.20;38.30;;;;;;4967601;28;20051;-52
2022/05/29 02:22:05;;;;;;;0.00;0.00;;;25.20;38.30;;;;;;4962532;28;20102;-49
2022/05/29 02:24:41;;;;;;;0.00;0.00;;;25.20;38.40;;;;;;4968128;28;20139;-54
2022/05/29 02:27:12;;;;;;;0.88;0.00;;;25.20;38.40;;;;;;4967836;28;20094;-49
2022/05/29 02:29:39;;;;;;;0.22;0.10;;;25.20;38.40;;;;;;4967540;28;20039;-55
2022/05/29 02:32:15;;;;;;;0.25;0.10;;;25.10;38.30;;;;;;4969105;28;20043;-51
2022/05/29 02:34:50;;;;;;;0.93;0.00;;;25.20;38.40;;;;;;4968276;28;20066;-49
2022/05/29 02:37:24;;;;;;;0.10;0.00;;;25.10;38.30;;;;;;4967485;28;20041;-49
2022/05/29 02:40:07;;;;;;;0.08;0.00;;;25.10;38.40;;;;;;4967260;28;20039;-53
2022/05/29 02:42:41;;;;;;;0.00;0.00;;;25.20;38.40;;;;;;4961830;28;20579;-50
2022/05/29 02:45:14;;;;;;;0.60;0.10;;;25.10;38.40;;;;;;4968801;28;20051;-52
2022/05/29 02:47:55;;;;;;;1.15;0.10;;;25.10;38.40;;;;;;4949243;28;20543;-49
2022/05/29 02:50:33;;;;;;;15.63;0.68;;;25.10;38.40;;;;;;4962926;28;20157;-49
2022/05/29 02:53:08;;;;;;;0.08;0.00;;;25.10;38.50;;;;;;4965444;28;20074;-49
2022/05/29 02:55:36;;;;;;;0.10;0.10;;;25.10;38.60;;;;;;4966232;28;20050;-52
2022/05/29 02:58:07;;;;;;;2.25;0.03;;;25.10;38.70;;;;;;4966782;28;20093;-52
2022/05/29 03:00:47;;;;;;;0.00;0.00;;;25.10;38.80;;;;;;4966881;28;20051;-53
2022/05/29 03:03:26;;;;;;;1.55;0.00;;;25.10;38.90;;;;;;4966634;28;20038;-49
2022/05/29 03:06:11;;;;;;;1.45;0.00;;;25.10;38.90;;;;;;4963403;28;20243;-54
2022/05/29 03:08:52;;;;;;;2.47;0.00;;;25.10;39.00;;;;;;4966449;28;20118;-53
2022/05/29 03:11:27;;;;;;;0.88;0.20;;;25.10;39.10;;;;;;4964513;28;20519;-54
2022/05/29 03:14:02;;;;;;;5.13;0.10;;;25.00;39.10;;;;;;4967968;28;20047;-52
2022/05/29 03:16:42;;;;;;;4.03;0.00;;;25.00;39.20;;;;;;4966114;28;20409;-54
2022/05/29 03:19:21;;;;;;;1.42;0.00;;;25.00;39.30;;;;;;4964679;28;20467;-51
2022/05/29 03:21:56;;;;;;;3.20;0.30;;;25.10;39.50;;;;;;4966379;28;20049;-54
2022/05/29 03:24:29;;;;;;;1.77;0.10;;;25.00;39.50;;;;;;4967081;28;20138;-52
2022/05/29 03:27:04;;;;;;;3.03;0.10;;;25.00;39.60;;;;;;4966975;28;20126;-52
2022/05/29 03:29:37;;;;;;;1.38;0.10;;;25.10;39.70;;;;;;4966706;28;20114;-53
2022/05/29 03:32:06;;;;;;;2.83;0.20;;;25.00;39.60;;;;;;4968933;28;20074;-51
2022/05/29 03:34:35;;;;;;;2.15;0.10;;;25.10;39.70;;;;;;4966387;28;20130;-53
2022/05/29 03:37:02;;;;;;;2.92;0.10;;;25.00;40.20;;;;;;4966248;28;20031;-53
2022/05/29 03:39:29;;;;;;;0.20;0.10;;;25.00;39.60;;;;;;4966636;28;20594;-53
2022/05/29 03:41:56;;;;;;;2.00;0.15;;;25.00;39.60;;;;;;4966899;28;20039;-52
2022/05/29 03:44:25;;;;;;;5.43;0.10;;;25.00;39.60;;;;;;4966903;28;20054;-54
2022/05/29 03:46:52;;;;;;;2.40;0.10;;;25.00;39.60;;;;;;4968079;28;20066;-52
2022/05/29 03:49:20;;;;;;;0.88;0.10;;;25.00;39.60;;;;;;4966876;28;20204;-55
2022/05/29 03:51:49;;;;;;;0.50;0.10;;;25.00;39.60;;;;;;4966415;28;20069;-55
2022/05/29 03:54:16;;;;;;;1.95;0.10;;;25.00;39.60;;;;;;4967016;28;20035;-54
2022/05/29 03:56:43;;;;;;;1.42;0.10;;;25.00;39.60;;;;;;4964022;28;20046;-55
2022/05/29 03:59:11;;;;;;;0.38;0.10;;;25.00;39.70;;;;;;4968371;28;20054;-55
2022/05/29 04:01:38;;;;;;;3.10;0.10;;;25.00;39.70;;;;;;4966059;28;20121;-55
2022/05/29 04:04:06;;;;;;;0.32;0.15;;;25.00;39.80;;;;;;4966983;28;20059;-52
2022/05/29 04:06:34;;;;;;;0.95;0.10;;;25.00;39.80;;;;;;4968358;28;20051;-53
2022/05/29 04:12:05;;;;;;;0.20;0.10;;;25.00;39.80;;;;;;4970653;28;20047;-54
2022/05/29 04:14:34;;;;;;;1.05;0.10;;;25.00;40.40;;;;;;4969805;28;20050;-54
2022/05/29 04:17:01;;;;;;;1.05;0.17;;;25.00;39.80;;;;;;4971129;28;20038;-55
2022/05/29 04:19:29;;;;;;;1.13;0.25;;;25.00;39.80;;;;;;4969623;28;20518;-53
2022/05/29 04:21:56;;;;;;;1.33;0.20;;;24.90;39.70;;;;;;4969742;28;20553;-54
2022/05/29 04:24:25;;;;;;;0.40;0.00;;;25.00;39.80;;;;;;4969912;28;20054;-52
2022/05/29 04:26:52;;;;;;;2.15;0.20;;;25.00;39.80;;;;;;4969469;28;20043;-52
2022/05/29 04:29:20;;;;;;;0.30;0.10;;;25.00;39.80;;;;;;4969948;28;20051;-50
2022/05/29 04:34:32;;;;;;;0.47;0.00;;;24.90;39.70;;;;;;4969529;28;20042;-54
2022/05/29 04:36:59;;;;;;;2.55;0.10;;;24.90;39.80;;;;;;4969212;28;20679;-54
2022/05/29 04:39:28;;;;;;;0.40;0.30;;;24.90;39.80;;;;;;4969391;28;20062;-52
2022/05/29 04:41:55;;;;;;;0.82;0.00;;;24.90;39.90;;;;;;4969345;28;20039;-58
2022/05/29 04:44:22;;;;;;;0.32;0.00;;;24.90;40.00;;;;;;4969779;28;20046;-51
2022/05/29 04:46:49;;;;;;;0.10;0.10;;;24.90;40.00;;;;;;4969526;28;20050;-54
2022/05/29 04:49:16;;;;;;;0.63;0.10;;;24.90;40.10;;;;;;4968937;28;20039;-54
2022/05/29 04:51:43;;;;;;;0.40;0.08;;;24.90;40.10;;;;;;4951621;28;20046;-50
2022/05/29 04:54:11;;;;;;;1.67;0.00;;;24.90;40.20;;;;;;4969102;28;20051;-50
2022/05/29 04:56:39;;;;;;;0.63;0.10;;;24.90;40.10;;;;;;4951416;28;20053;-48
2022/05/29 04:59:06;;;;;;;0.73;0.10;;;24.90;40.10;;;;;;4970733;28;20086;-53
2022/05/29 05:01:33;;;;;;;2.35;0.20;;;24.90;40.10;;;;;;4968645;28;20057;-52
2022/05/29 05:04:00;;;;;;;1.20;0.10;;;24.90;40.20;;;;;;4968796;28;20105;-49
2022/05/29 05:06:28;;;;;;;0.43;0.10;;;24.90;40.20;;;;;;4968982;28;20035;-49
2022/05/29 05:08:55;;;;;;;0.10;0.00;;;24.90;40.40;;;;;;4951925;28;20113;-49
2022/05/29 05:11:22;;;;;;;0.10;0.10;;;24.90;40.30;;;;;;4969665;28;20039;-51
2022/05/29 05:13:51;;;;;;;0.30;0.30;;;24.90;40.30;;;;;;4969773;28;20051;-52
2022/05/29 05:16:18;;;;;;;1.65;0.45;;;24.90;40.30;;;;;;4965525;28;20530;-52
2022/05/29 05:18:45;;;;;;;0.10;0.00;;;24.90;40.30;;;;;;4950741;28;20134;-51
2022/05/29 05:21:12;;;;;;;2.20;0.00;;;24.90;40.30;;;;;;4962350;28;20042;-52
2022/05/29 05:23:40;;;;;;;0.20;0.10;;;24.90;40.40;;;;;;4968461;28;20066;-50
2022/05/29 05:26:11;;;;;;;0.10;0.00;;;24.90;41.00;;;;;;4969506;28;20404;-53
2022/05/29 05:28:38;;;;;;;0.40;0.00;;;24.90;40.50;;;;;;4967598;28;20090;-54
2022/05/29 05:31:07;;;;;;;0.20;0.00;;;24.90;40.60;;;;;;4968572;28;20102;-52
2022/05/29 05:33:34;;;;;;;0.90;0.10;;;24.90;40.60;;;;;;4962307;28;20082;-50
2022/05/29 05:36:01;;;;;;;2.17;0.80;;;25.00;40.60;;;;;;4968308;28;20041;-50
2022/05/29 05:38:28;;;;;;;0.13;0.00;;;24.90;40.60;;;;;;4966593;28;20081;-53
2022/05/29 05:40:55;;;;;;;0.20;0.00;;;25.00;40.60;;;;;;4970106;28;20058;-54
2022/05/29 05:43:22;;;;;;;1.27;0.00;;;25.00;40.50;;;;;;4967319;28;20099;-53
2022/05/29 05:45:49;;;;;;;0.10;0.05;;;24.90;40.50;;;;;;4967980;28;20094;-51
2022/05/29 05:48:17;;;;;;;0.40;0.10;;;25.00;40.40;;;;;;4950972;28;20403;-54
2022/05/29 05:50:45;;;;;;;0.80;0.10;;;25.00;40.40;;;;;;4967962;28;20046;-53
2022/05/29 05:53:12;;;;;;;0.95;0.10;;;25.00;41.00;;;;;;4969891;28;20058;-53
2022/05/29 05:55:39;;;;;;;0.47;0.03;;;25.00;40.40;;;;;;4967658;28;20185;-54
2022/05/29 05:58:07;;;;;;;1.75;0.80;;;25.00;40.30;;;;;;4967377;28;20134;-49
2022/05/29 06:00:34;;;;;;;1.40;0.10;;;25.00;40.30;;;;;;4967382;28;20043;-53
2022/05/29 06:03:01;;;;;;;0.47;0.15;;;25.00;40.30;;;;;;4967923;28;20039;-52
2022/05/29 06:05:29;;;;;;;0.15;0.00;;;25.10;40.20;;;;;;4967956;28;20491;-53
2022/05/29 06:07:56;;;;;;;1.58;0.45;;;25.10;40.20;;;;;;4968652;28;20157;-53
2022/05/29 06:10:23;;;;;;;0.17;0.00;;;25.10;40.20;;;;;;4967793;28;20042;-53
2022/05/29 06:12:51;;;;;;;1.17;0.10;;;25.10;40.20;;;;;;4967290;28;20113;-49
2022/05/29 06:15:18;;;;;;;0.30;0.00;;;25.10;40.20;;;;;;4967627;28;20069;-52
2022/05/29 06:17:45;;;;;;;0.63;0.00;;;25.20;40.40;;;;;;4966503;28;20055;-50
2022/05/29 06:20:13;;;;;;;0.32;0.00;;;25.20;40.20;;;;;;4967935;28;20526;-52
2022/05/29 06:22:42;;;;;;;0.30;0.22;;;25.20;40.20;;;;;;4967474;28;20059;-53
2022/05/29 06:25:11;;;;;;;3.47;0.10;;;25.20;40.10;;;;;;4968154;28;20034;-52
2022/05/29 06:27:39;;;;;;;0.95;0.00;;;25.30;40.10;;;;;;4967055;28;20422;-52
2022/05/29 06:30:09;;;;;;;1.92;0.10;;;25.30;40.20;;;;;;4949779;28;20098;-53
2022/05/29 06:32:36;;;;;;;2.78;0.10;;;25.30;40.10;;;;;;4967687;28;27376;-53
2022/05/29 06:35:05;;;;;;;0.82;0.10;;;25.30;40.10;;;;;;4969223;28;20594;-53
2022/05/29 06:37:32;;;;;;;2.28;0.20;;;25.30;40.10;;;;;;4966936;28;20061;-52
2022/05/29 06:40:01;;;;;;;0.73;0.10;;;25.30;40.10;;;;;;4967231;28;20066;-53
2022/05/29 06:42:28;;;;;;;1.85;0.65;;;25.30;40.10;;;;;;4967211;28;20042;-51
2022/05/29 06:45:15;;;;;;;0.10;0.00;;;25.30;40.10;;;;;;4962522;28;20062;-50
2022/05/29 06:47:42;;;;;;;4.68;0.10;;;25.30;40.00;;;;;;4949646;28;20046;-52
2022/05/29 06:50:11;;;;;;;0.10;0.08;;;25.40;40.10;;;;;;4968813;28;20046;-53
2022/05/29 06:52:39;;;;;;;0.55;0.08;;;25.40;40.10;;;;;;4966757;28;20042;-54
2022/05/29 06:55:10;;;;;;;1.10;0.05;;;25.40;40.10;;;;;;4967048;28;20125;-52
2022/05/29 06:57:37;;;;;;;0.10;0.00;;;25.40;40.10;;;;;;4966452;28;20411;-54
2022/05/29 07:08:21;;;;;;;0.20;0.08;;;25.50;40.80;;;;;;4964651;28;20038;-49
2022/05/29 07:10:49;;;;;;;1.98;0.05;;;25.50;40.90;;;;;;4967667;28;20049;-54
2022/05/29 07:13:16;;;;;;;3.80;0.10;;;25.60;41.00;;;;;;4965271;28;20047;-53
2022/05/29 07:15:43;;;;;;;3.50;0.10;;;25.60;41.20;;;;;;4966495;28;20567;-50
2022/05/29 07:18:11;;;;;;;3.55;0.10;;;25.70;41.40;;;;;;4966071;28;20070;-51
2022/05/29 07:20:38;;;;;;;0.75;0.10;;;25.70;41.50;;;;;;4965965;28;20047;-53
2022/05/29 07:23:05;;;;;;;1.13;0.05;;;25.70;41.50;;;;;;4966449;28;20133;-51
2022/05/29 07:25:32;;;;;;;1.75;0.10;;;25.70;41.60;;;;;;4964790;28;20042;-54
2022/05/29 07:28:01;;;;;;;0.57;0.00;;;25.70;41.60;;;;;;4964282;28;20047;-52
2022/05/29 07:30:28;;;;;;;1.00;0.05;;;25.70;41.60;;;;;;4965163;28;20070;-52
2022/05/29 07:32:55;;;;;;;1.30;0.10;;;25.70;41.60;;;;;;4965570;28;20043;-50
2022/05/29 07:35:23;;;;;;;0.20;0.00;;;25.70;41.60;;;;;;4967261;28;20039;-49
2022/05/29 07:37:50;;;;;;;0.40;0.00;;;25.80;42.00;;;;;;4967258;28;20678;-50
2022/05/29 07:40:17;;;;;;;0.73;0.63;;;25.80;41.70;;;;;;4965831;28;20046;-49
2022/05/29 07:45:32;;;;;;;3.92;0.00;;;25.80;41.70;;;;;;4952881;28;20090;-52
2022/05/29 07:47:59;;;;;;;1.10;0.10;;;25.80;41.80;;;;;;4970656;28;20070;-54
2022/05/29 07:50:26;;;;;;;0.65;0.10;;;25.80;41.80;;;;;;4970282;28;20578;-53
2022/05/29 07:52:54;;;;;;;0.95;0.00;;;25.90;41.80;;;;;;4971810;28;20480;-53
2022/05/29 07:55:22;;;;;;;3.53;0.20;;;25.90;41.80;;;;;;4969743;28;20055;-53
2022/05/29 07:57:49;;;;;;;1.15;0.08;;;25.90;41.80;;;;;;4969676;28;20039;-53
2022/05/29 08:00:19;;;;;;;2.90;0.15;;;25.90;41.80;;;;;;4967840;28;20046;-51
2022/05/29 08:02:49;;;;;;;0.75;0.10;;;25.90;41.80;;;;;;4966397;28;20154;-51
2022/05/29 08:05:18;;;;;;;2.00;0.30;;;26.00;42.00;;;;;;4971589;28;20138;-51
2022/05/29 08:07:47;;;;;;;1.00;0.10;;;26.00;42.00;;;;;;4969678;28;20074;-52
2022/05/29 08:10:17;;;;;;;0.13;0.00;;;26.00;42.00;;;;;;4968617;28;20039;-52
2022/05/29 08:12:44;;;;;;;0.57;0.38;;;26.00;42.10;;;;;;4966986;28;20461;-54
2022/05/29 08:15:12;;;;;;;0.85;0.10;;;26.00;42.00;;;;;;4970090;28;20043;-52
2022/05/29 08:17:39;;;;;;;0.65;0.10;;;26.00;41.90;;;;;;4970962;28;20411;-54
2022/05/29 08:20:10;;;;;;;2.80;0.57;;;26.00;41.90;;;;;;4970927;28;20129;-54
2022/05/29 08:22:38;;;;;;;0.55;0.00;;;26.00;41.80;;;;;;4969357;28;20778;-53
2022/05/29 08:30:41;;;;;;;0.90;0.10;;;26.00;41.90;;;;;;4969297;28;20456;-49
2022/05/29 08:33:11;;;;;;;2.53;0.28;;;26.00;41.90;;;;;;4968021;28;20423;-50
2022/05/29 08:35:42;;;;;;;0.35;0.10;;;26.10;42.00;;;;;;4968584;28;20039;-54
2022/05/29 08:38:10;;;;;;;1.67;0.00;;;26.10;42.00;;;;;;4971658;28;20047;-52
2022/05/29 08:40:43;;;;;;;0.52;0.15;;;26.10;42.00;;;;;;4970511;28;20420;-52
2022/05/29 08:43:18;;;;;;;0.40;0.03;;;26.20;42.00;;;;;;4970216;28;20047;-54
2022/05/29 08:45:48;;;;;;;1.10;0.10;;;26.20;42.00;;;;;;4970338;28;20034;-52
2022/05/29 08:48:16;;;;;;;1.27;0.43;;;26.20;42.00;;;;;;4970782;28;20086;-51
2022/05/29 08:50:53;;;;;;;0.73;0.10;;;26.20;42.00;;;;;;4969828;28;20051;-50
2022/05/29 08:53:33;;;;;;;0.50;0.00;;;26.20;42.00;;;;;;4969503;28;20129;-50
2022/05/29 08:56:09;;;;;;;1.10;0.05;;;26.20;41.90;;;;;;4970250;28;20046;-53
2022/05/29 08:58:45;;;;;;;0.88;0.10;;;26.20;41.90;;;;;;4969399;28;20043;-53
2022/05/29 09:01:16;;;;;;;;;;;26.20;42.00;;;;;;4966364;28;20059;-54
2022/05/29 09:03:53;;;;;;;2.05;0.10;;;26.20;41.90;;;;;;4968921;28;19926;-53
2022/05/29 09:06:27;;;;;;;0.93;0.10;;;26.20;42.00;;;;;;4968792;28;20520;-54
2022/05/29 09:09:01;;;;;;;0.43;0.13;;;26.20;42.00;;;;;;4968773;28;20038;-53
2022/05/29 09:11:32;;;;;;;0.40;0.00;;;26.20;41.90;;;;;;4967313;28;20101;-53
2022/05/29 09:14:09;;;;;;;0.00;0.00;;;26.20;41.90;;;;;;4970974;28;20558;-53
2022/05/29 09:16:43;;;;;;;0.10;0.00;;;26.20;41.90;;;;;;4966604;28;20070;-52
2022/05/29 09:19:16;;;;;;;0.13;0.10;;;26.20;41.90;;;;;;4967002;28;20043;-54
2022/05/29 09:21:52;;;;;;;3.05;0.10;;;26.20;41.90;;;;;;4967789;28;20463;-54
2022/05/29 09:24:36;;;;;;;1.48;0.00;;;26.20;41.80;;;;;;4968675;28;20574;-50
2022/05/29 09:27:04;;;;;;;3.53;0.30;;;26.30;41.90;;;;;;4960031;28;20051;-53
2022/05/29 09:29:34;;;;;;;2.75;0.10;;;26.20;41.80;;;;;;4968102;28;20043;-53
2022/05/29 09:32:04;;;;;;;3.55;0.00;;;26.30;41.90;;;;;;4952914;28;20054;-50
2022/05/29 09:34:31;;;;;;;0.17;0.00;;;26.30;41.90;;;;;;4967489;28;20516;-52
2022/05/29 09:37:07;;;;;;;2.28;0.30;;;26.30;41.90;;;;;;4948183;28;20039;-52
2022/05/29 09:39:38;;;;;;;3.30;0.05;;;26.30;42.00;;;;;;4967661;28;20125;-50
2022/05/29 09:42:09;;;;;;;1.35;0.13;;;26.30;42.00;;;;;;4965960;28;20134;-53
2022/05/29 09:44:36;;;;;;;4.47;0.10;;;26.30;42.00;;;;;;4967546;28;20134;-54
2022/05/29 09:50:06;;;;;;;1.00;0.00;;;26.30;42.00;;;;;;4968119;28;20046;-50
2022/05/29 09:52:40;;;;;;;1.55;0.00;;;26.40;42.00;;;;;;4967154;28;20057;-51
2022/05/29 09:55:22;;;;;;;1.13;0.00;;;26.40;42.10;;;;;;4965571;28;20126;-50
2022/05/29 09:57:53;;;;;;;0.60;0.00;;;26.40;42.00;;;;;;4967346;28;20410;-49
2022/05/29 10:00:28;;;;;;;0.95;0.13;;;26.40;42.00;;;;;;4967173;28;20065;-54
2022/05/29 10:02:56;;;;;;;1.58;0.20;;;26.40;41.90;;;;;;4968236;28;20062;-53
2022/05/29 10:05:27;;;;;;;0.60;0.10;;;26.40;41.90;;;;;;4968067;28;20518;-52
2022/05/29 10:07:59;;;;;;;2.03;0.40;;;26.40;42.00;;;;;;4969509;28;20514;-51
2022/05/29 10:10:33;;;;;;;0.95;0.00;;;26.40;42.00;;;;;;4966789;28;20039;-53
2022/05/29 10:13:02;;;;;;;0.65;0.05;;;26.40;42.00;;;;;;4968545;28;20046;-54
2022/05/29 10:15:42;;;;;;;0.57;0.00;;;26.40;42.00;;;;;;4966739;28;20059;-53
2022/05/29 10:18:33;;;;;;;6.45;0.13;;;26.40;42.70;;;;;;4967864;28;20530;-53
2022/05/29 10:21:10;;;;;;;5.75;0.10;;;26.50;42.20;;;;;;4963015;28;20053;-55
2022/05/29 10:23:39;;;;;;;2.63;0.10;;;26.50;42.80;;;;;;4965018;28;20131;-55
2022/05/29 10:26:13;;;;;;;13.48;0.60;;;26.40;42.10;;;;;;4966820;28;20050;-50
2022/05/29 10:28:42;;;;;;;15.30;1.48;;;26.50;42.80;;;;;;4964954;28;20054;-51
2022/05/29 10:31:13;;;;;;;12.23;1.00;;;26.50;44.70;;;;;;4962822;28;20117;-49
2022/05/29 10:33:41;;;;;;;9.77;0.45;;;26.40;45.50;;;;;;4958715;28;20130;-52
2022/05/29 10:36:14;;;;;;;10.88;0.73;;;26.50;45.90;;;;;;4966886;28;20046;-52
2022/05/29 10:38:44;;;;;;;6.93;0.65;;;26.50;46.50;;;;;;4967412;28;20539;-51
2022/05/29 10:41:12;;;;;;;4.75;0.20;;;26.50;46.40;;;;;;4969026;28;20051;-50
2022/05/29 10:43:46;;;;;;;7.45;0.55;;;26.50;46.50;;;;;;4966717;28;20045;-52
2022/05/29 10:46:17;;;;;;;7.82;0.40;;;26.60;46.30;;;;;;4966299;28;20121;-52
2022/05/29 10:49:21;;;;;;;7.40;0.30;;;26.60;46.00;;;;;;4966574;28;20873;-53
2022/05/29 10:52:01;;;;;;;5.53;0.30;;;26.60;45.70;;;;;;4959144;28;20062;-50
2022/05/29 10:54:43;;;;;;;1.48;0.20;;;26.60;45.60;;;;;;4967945;28;20448;-54
2022/05/29 10:57:27;;;;;;;15.63;0.40;;;26.70;45.40;;;;;;4967657;28;20558;-50
2022/05/29 11:00:17;;;;;;;10.38;0.40;;;26.70;45.20;;;;;;4965967;28;20053;-52
2022/05/29 11:03:18;;;;;;;7.45;0.82;;;26.70;45.00;;;;;;4966115;28;20125;-53
2022/05/29 11:06:19;;;;;;;10.60;1.85;;;26.80;44.90;;;;;;4960884;28;20106;-53
2022/05/29 11:08:56;;;;;;;4.00;0.10;;;26.80;44.70;;;;;;4967233;28;20141;-55
2022/05/29 11:11:38;;;;;;;2.05;0.20;;;26.70;44.60;;;;;;4967439;28;20149;-53
2022/05/29 11:14:19;;;;;;;3.58;0.17;;;26.80;44.50;;;;;;4967829;28;20046;-54
2022/05/29 11:16:54;;;;;;;6.35;0.25;;;26.80;45.00;;;;;;4970755;28;20039;-51
2022/05/29 11:19:52;;;;;;;5.88;0.57;;;26.80;44.20;;;;;;4969435;28;20038;-54
2022/05/29 11:22:25;;;;;;;2.72;0.88;;;26.80;44.00;;;;;;4966931;28;20404;-53
2022/05/29 11:25:09;;;;;;;4.93;0.47;;;26.70;44.00;;;;;;4970382;28;20043;-53
2022/05/29 11:28:08;;;;;;;2.35;0.10;;;26.80;43.90;;;;;;4970012;28;20151;-51
2022/05/29 11:30:47;;;;;;;1.58;0.30;;;26.80;43.70;;;;;;4965515;28;20777;-52
2022/05/29 11:33:34;;;;;;;3.58;0.50;;;26.80;43.60;;;;;;4970984;28;20494;-53
2022/05/29 11:36:27;;;;;;;2.83;0.20;;;26.80;43.40;;;;;;4969414;28;20145;-53
2022/05/29 11:39:24;;;;;;;4.05;0.32;;;26.80;43.30;;;;;;4967440;28;20130;-53
2022/05/29 11:41:58;;;;;;;2.33;0.13;;;26.80;43.20;;;;;;4965062;28;20153;-51
2022/05/29 11:44:31;;;;;;;4.85;0.20;;;26.70;43.00;;;;;;4968208;28;20043;-54
2022/05/29 11:52:48;;;;;;;0.80;0.10;;;26.70;42.70;;;;;;4970209;28;20067;-53
2022/05/29 11:55:18;;;;;;;1.33;0.10;;;26.70;42.70;;;;;;4971823;28;20042;-51
2022/05/29 11:57:51;;;;;;;0.35;0.10;;;26.70;42.60;;;;;;4970898;28;20121;-51
2022/05/29 12:00:28;;;;;;;1.85;0.82;;;26.70;42.60;;;;;;4971133;28;20092;-50
2022/05/29 12:03:04;;;;;;;0.10;0.10;;;26.70;42.50;;;;;;4970937;28;20122;-50
2022/05/29 12:05:37;;;;;;;0.47;0.10;;;26.70;42.30;;;;;;4970495;28;20439;-50
2022/05/29 12:08:12;;;;;;;3.85;0.10;;;26.70;42.20;;;;;;4972280;28;20050;-50
2022/05/29 12:10:52;;;;;;;1.55;0.10;;;26.70;42.10;;;;;;4970513;28;20077;-54
2022/05/29 12:13:24;;;;;;;1.55;0.20;;;26.70;42.00;;;;;;4966826;28;20698;-54
2022/05/29 12:16:00;;;;;;;1.00;0.10;;;26.70;41.90;;;;;;4969296;28;20043;-53
2022/05/29 12:18:37;;;;;;;1.20;0.10;;;26.70;41.70;;;;;;4971361;28;20118;-52
2022/05/29 12:21:06;;;;;;;1.95;0.30;;;26.80;41.70;;;;;;4970890;28;20125;-51
2022/05/29 12:23:39;;;;;;;1.33;0.20;;;26.80;41.50;;;;;;4967901;28;20047;-51
2022/05/29 12:26:08;;;;;;;5.63;0.40;;;26.80;41.40;;;;;;4971461;28;20072;-54
2022/05/29 12:28:43;;;;;;;1.75;0.10;;;26.80;41.30;;;;;;4968490;28;20068;-54
2022/05/29 12:31:16;;;;;;;1.67;0.10;;;26.90;41.30;;;;;;4965051;28;20090;-54
2022/05/29 12:33:46;;;;;;;1.65;0.10;;;26.90;41.10;;;;;;4964036;28;20057;-51
2022/05/29 12:36:21;;;;;;;2.45;0.20;;;26.90;41.00;;;;;;4969956;28;20050;-49
2022/05/29 12:39:03;;;;;;;1.55;0.40;;;27.00;40.90;;;;;;4965276;28;20538;-50
2022/05/29 12:41:55;;;;;;;2.60;0.73;;;27.00;40.80;;;;;;4968034;28;20057;-50
2022/05/29 12:44:43;;;;;;;1.75;0.10;;;27.00;40.70;;;;;;4966338;28;20042;-53
2022/05/29 12:47:47;;;;;;;0.32;0.10;;;27.00;40.60;;;;;;4967932;28;20817;-54
2022/05/29 12:50:35;;;;;;;0.20;0.10;;;27.00;40.60;;;;;;4926535;29;20067;-49
2022/05/29 12:53:49;;;;;;;1.50;0.10;;;27.00;40.50;;;;;;4924620;29;20111;-50
2022/05/29 12:56:46;;;;;;;0.63;0.10;;;27.00;40.40;;;;;;4927334;29;20524;-49
2022/05/29 12:59:38;;;;;;;0.85;0.77;;;27.00;40.30;;;;;;4925717;29;20559;-50
2022/05/29 13:02:23;;;;;;;1.05;0.10;;;27.00;40.20;;;;;;4925589;29;20114;-50
2022/05/29 13:05:21;;;;;;;1.77;0.33;;;27.00;40.10;;;;;;4924158;29;20058;-51
2022/05/29 13:08:16;;;;;;;4.57;0.40;;;27.00;40.00;;;;;;4921929;29;20390;-53
2022/05/29 13:10:48;;;;;;;0.88;0.10;;;27.00;40.00;;;;;;4913081;29;20058;-48
2022/05/29 13:13:20;;;;;;;0.95;0.10;;;27.00;39.90;;;;;;4926963;29;20144;-51
2022/05/29 13:15:48;;;;;;;5.00;0.10;;;27.00;39.80;;;;;;4920454;29;20048;-52
2022/05/29 13:18:38;;;;;;;2.55;0.10;;;27.00;39.70;;;;;;4925042;29;20142;-52
2022/05/29 13:21:14;;;;;;;0.40;0.10;;;27.00;39.60;;;;;;4926498;29;20167;-53
2022/05/29 13:23:45;;;;;;;1.05;0.05;;;27.00;39.50;;;;;;4927262;29;20079;-51
2022/05/29 13:26:25;;;;;;;1.35;0.38;;;27.00;39.40;;;;;;4948074;28;20043;-54
2022/05/29 13:28:56;;;;;;;1.60;0.25;;;27.10;39.40;;;;;;4969361;28;20129;-50
2022/05/29 13:31:24;;;;;;;1.48;0.20;;;27.10;39.30;;;;;;4965204;28;20137;-51
2022/05/29 13:34:19;;;;;;;0.20;0.20;;;27.10;39.20;;;;;;4968457;28;20086;-52
2022/05/29 13:37:08;;;;;;;0.10;0.00;;;27.10;39.10;;;;;;4966302;28;20053;-56
2022/05/29 13:40:03;;;;;;;0.80;0.10;;;27.20;39.00;;;;;;4966450;28;20047;-52
2022/05/29 13:42:48;;;;;;;0.40;0.10;;;27.10;38.90;;;;;;4968223;28;20534;-52
2022/05/29 13:46:04;;;;;;;0.47;0.28;;;27.10;38.90;;;;;;4968000;28;20041;-53
2022/05/29 13:48:32;;;;;;;0.88;0.10;;;27.10;38.80;;;;;;4910033;29;20123;-49
2022/05/29 13:51:18;;;;;;;0.10;0.10;;;27.10;38.80;;;;;;4911209;29;20051;-53